Time;durP1;ratioP1;P1;durP2;ratioP2;P2;SDS_P1;SDS_P2;PMS_P1;PMS_P2;Temp;Humidity;BMP_temperature;BMP_pressure;BME280_temperature;BME280_humidity;BME280_pressure;Samples;Min_cycle;Max_cycle;Signal;HPM_P1;HPM_P2
2023/08/13 00:00:43;;;;;;;6.73;4.67;;;;;;;15.54;100.00;100797.47;1474284;87;21451;-81
2023/08/13 00:03:09;;;;;;;9.00;4.47;;;;;;;15.47;100.00;100797.30;1471361;87;21494;-82
2023/08/13 00:05:36;;;;;;;7.70;4.30;;;;;;;15.45;100.00;100790.47;1468623;87;21331;-81
2023/08/13 00:08:02;;;;;;;7.20;4.60;;;;;;;15.42;100.00;100797.47;1471345;88;21582;-82
2023/08/13 00:10:28;;;;;;;6.90;4.17;;;;;;;15.38;100.00;100794.83;1480260;87;22306;-81
2023/08/13 00:12:55;;;;;;;15.17;4.40;;;;;;;15.33;100.00;100796.19;1473955;88;21412;-81
2023/08/13 00:15:21;;;;;;;5.07;4.23;;;;;;;15.29;100.00;100798.84;1462565;88;21397;-81
2023/08/13 00:17:48;;;;;;;9.53;4.03;;;;;;;15.21;100.00;100804.18;1469418;87;21449;-80
2023/08/13 00:20:15;;;;;;;9.00;5.70;;;;;;;15.15;100.00;100804.86;1463930;87;21376;-80
2023/08/13 00:22:41;;;;;;;7.53;5.23;;;;;;;15.13;100.00;100802.84;1472892;88;21522;-80
2023/08/13 00:29:09;;;;;;;8.15;5.58;;;;;;;15.13;100.00;100804.19;1472443;88;21456;-82
2023/08/13 00:31:35;;;;;;;8.17;4.83;;;;;;;15.06;100.00;100805.87;1473221;88;21687;-82
2023/08/13 00:34:01;;;;;;;7.10;5.27;;;;;;;14.99;100.00;100807.52;1478635;88;21442;-80
2023/08/13 00:36:27;;;;;;;6.17;4.50;;;;;;;14.93;100.00;100799.69;1481520;88;21563;-79
2023/08/13 00:38:53;;;;;;;10.37;6.27;;;;;;;14.86;100.00;100800.87;1469349;87;21368;-81
2023/08/13 00:41:20;;;;;;;7.20;4.77;;;;;;;14.81;100.00;100794.38;1469445;88;22974;-80
2023/08/13 00:43:46;;;;;;;8.43;5.07;;;;;;;14.77;100.00;100796.55;1469238;87;21507;-81
2023/08/13 00:46:12;;;;;;;5.73;4.00;;;;;;;14.78;100.00;100800.03;1470492;87;22307;-81
2023/08/13 00:48:40;;;;;;;7.10;5.23;;;;;;;14.73;100.00;100799.69;1470080;87;22272;-81
2023/08/13 00:51:09;;;;;;;9.63;5.27;;;;;;;14.66;100.00;100803.52;1468915;87;21323;-81
2023/08/13 00:53:48;;;;;;;7.60;4.40;;;;;;;14.62;100.00;100799.03;1471240;87;21383;-82
2023/08/13 00:56:16;;;;;;;5.70;4.37;;;;;;;14.63;100.00;100801.19;1466630;87;22233;-82
2023/08/13 00:58:43;;;;;;;7.30;5.40;;;;;;;14.60;100.00;100806.34;1464522;87;21906;-82
2023/08/13 01:01:11;;;;;;;7.77;4.67;;;;;;;14.59;100.00;100806.53;1482907;88;22385;-81
2023/08/13 01:03:39;;;;;;;12.03;5.73;;;;;;;14.61;100.00;100805.34;1471239;87;21368;-81
2023/08/13 01:06:22;;;;;;;10.47;4.83;;;;;;;14.59;100.00;100807.86;1480166;88;21508;-80
2023/08/13 01:09:06;;;;;;;5.27;4.53;;;;;;;14.52;100.00;100803.67;1471353;88;21500;-81
2023/08/13 01:11:56;;;;;;;8.13;4.13;;;;;;;14.51;100.00;100807.81;1452344;87;22329;-81
2023/08/13 01:14:28;;;;;;;13.85;4.20;;;;;;;14.49;100.00;100803.14;1479956;88;21567;-82
2023/08/13 01:17:01;;;;;;;11.20;4.17;;;;;;;14.50;100.00;100805.65;1478814;87;21611;-81
2023/08/13 01:19:28;;;;;;;6.90;4.33;;;;;;;14.47;100.00;100806.45;1472226;87;21509;-81
2023/08/13 01:21:54;;;;;;;5.97;4.07;;;;;;;14.40;100.00;100809.77;1472210;87;22218;-81
2023/08/13 01:24:20;;;;;;;7.13;4.60;;;;;;;14.36;100.00;100804.95;1475075;87;21441;-81
2023/08/13 01:26:59;;;;;;;11.13;5.03;;;;;;;14.33;100.00;100802.12;1469665;87;22417;-83
2023/08/13 01:29:36;;;;;;;5.70;4.23;;;;;;;14.30;100.00;100805.11;1478178;87;21360;-81
2023/08/13 01:32:05;;;;;;;7.60;4.93;;;;;;;14.27;100.00;100807.23;1471071;87;22345;-82
2023/08/13 01:34:32;;;;;;;5.50;4.17;;;;;;;14.26;100.00;100806.41;1479953;88;22365;-81
2023/08/13 01:37:01;;;;;;;7.43;4.07;;;;;;;14.30;100.00;100809.58;1473400;88;21419;-82
2023/08/13 01:39:27;;;;;;;7.60;4.97;;;;;;;14.29;100.00;100814.57;1477975;88;21397;-82
2023/08/13 01:41:55;;;;;;;11.00;4.47;;;;;;;14.25;100.00;100818.06;1471414;88;21323;-82
2023/08/13 01:44:21;;;;;;;5.57;4.23;;;;;;;14.22;100.00;100817.89;1478289;88;21383;-82
2023/08/13 01:46:48;;;;;;;7.10;4.47;;;;;;;14.22;100.00;100815.73;1479477;88;21508;-80
2023/08/13 01:49:15;;;;;;;6.63;4.37;;;;;;;14.22;100.00;100813.06;1473955;88;21367;-81
2023/08/13 01:51:41;;;;;;;6.53;5.03;;;;;;;14.23;100.00;100814.72;1471019;87;22226;-84
2023/08/13 01:54:07;;;;;;;6.40;4.07;;;;;;;14.23;100.00;100820.88;1478445;88;21324;-85
2023/08/13 01:56:33;;;;;;;8.80;4.90;;;;;;;14.26;100.00;100821.05;1475754;87;21405;-84
2023/08/13 01:59:00;;;;;;;9.63;4.50;;;;;;;14.23;100.00;100821.38;1470611;87;22291;-84
2023/08/13 02:01:26;;;;;;;8.07;4.60;;;;;;;14.20;100.00;100820.37;1479129;87;21474;-83
2023/08/13 02:03:52;;;;;;;8.30;4.60;;;;;;;14.19;100.00;100818.72;1470202;88;21382;-84
2023/08/13 02:06:18;;;;;;;15.97;5.20;;;;;;;14.18;100.00;100821.02;1476271;87;21335;-85
2023/08/13 02:08:45;;;;;;;6.73;3.70;;;;;;;14.20;100.00;100820.37;1462435;88;21649;-85
2023/08/13 02:11:11;;;;;;;6.20;4.00;;;;;;;14.22;100.00;100819.72;1473529;87;22343;-84
2023/08/13 02:13:37;;;;;;;4.47;3.77;;;;;;;14.26;100.00;100821.05;1477601;87;21636;-84
2023/08/13 02:16:05;;;;;;;8.83;4.97;;;;;;;14.29;100.00;100820.72;1450157;88;21390;-84
2023/08/13 02:18:32;;;;;;;9.57;4.00;;;;;;;14.31;100.00;100821.41;1467342;87;22403;-85
2023/08/13 02:20:58;;;;;;;7.53;5.00;;;;;;;14.32;100.00;100819.06;1470011;88;21361;-84
2023/08/13 02:23:24;;;;;;;4.93;4.43;;;;;;;14.32;100.00;100824.39;1460963;88;21368;-84
2023/08/13 02:25:53;;;;;;;6.50;4.27;;;;;;;14.30;100.00;100825.08;1470104;88;21382;-85
2023/08/13 02:28:19;;;;;;;6.70;4.50;;;;;;;14.29;100.00;100826.55;1475074;87;21405;-85
2023/08/13 02:30:46;;;;;;;5.63;4.20;;;;;;;14.28;100.00;100828.39;1464934;88;21458;-85
2023/08/13 02:33:14;;;;;;;11.47;3.90;;;;;;;14.28;100.00;100832.38;1455283;88;21561;-85
2023/08/13 02:35:40;;;;;;;5.27;3.87;;;;;;;14.29;100.00;100831.38;1476198;87;21805;-86
2023/08/13 02:38:07;;;;;;;6.23;4.53;;;;;;;14.29;100.00;100836.70;1471807;87;22255;-85
2023/08/13 02:40:34;;;;;;;5.13;3.67;;;;;;;14.32;100.00;100839.03;1471357;87;21375;-84
2023/08/13 02:43:00;;;;;;;5.20;4.20;;;;;;;14.36;100.00;100835.58;1468373;88;21316;-85
2023/08/13 02:45:26;;;;;;;5.07;4.20;;;;;;;14.36;100.00;100841.73;1466655;88;21485;-83
2023/08/13 02:47:52;;;;;;;9.30;4.27;;;;;;;14.33;100.00;100838.06;1463232;88;21360;-84
2023/08/13 02:50:18;;;;;;;8.47;4.40;;;;;;;14.30;100.00;100838.39;1414819;90;21496;-83
2023/08/13 02:52:44;;;;;;;11.07;4.10;;;;;;;14.31;100.00;100836.55;1469025;87;21486;-83
2023/08/13 02:55:11;;;;;;;8.37;3.97;;;;;;;14.29;100.00;100838.03;1473425;87;21487;-84
2023/08/13 02:57:37;;;;;;;6.67;3.80;;;;;;;14.31;100.00;100842.70;1473466;87;21376;-84
2023/08/13 03:00:04;;;;;;;9.57;3.90;;;;;;;14.28;100.00;100839.04;1472066;87;21375;-84
2023/08/13 03:02:31;;;;;;;6.60;4.00;;;;;;;14.30;100.00;100842.38;1476135;87;21390;-84
2023/08/13 03:04:58;;;;;;;10.03;4.40;;;;;;;14.31;100.00;100846.70;1476041;87;22463;-82
2023/08/13 03:07:24;;;;;;;7.07;5.00;;;;;;;14.32;100.00;100845.69;1463701;88;21413;-84
2023/08/13 03:09:50;;;;;;;5.43;4.10;;;;;;;14.30;100.00;100853.50;1473030;88;21456;-84
2023/08/13 03:12:17;;;;;;;4.87;4.37;;;;;;;14.27;100.00;100844.04;1472925;87;21382;-83
2023/08/13 03:14:44;;;;;;;5.37;4.20;;;;;;;14.22;100.00;100843.68;1478176;88;21346;-83
2023/08/13 03:17:10;;;;;;;5.37;3.67;;;;;;;14.18;100.00;100851.63;1471849;88;21396;-83
2023/08/13 03:19:36;;;;;;;6.97;4.23;;;;;;;14.15;100.00;100851.95;1474855;87;22211;-83
2023/08/13 03:22:03;;;;;;;12.37;3.63;;;;;;;14.14;100.00;100848.97;1479736;88;21427;-83
2023/08/13 03:24:29;;;;;;;7.63;3.40;;;;;;;14.14;100.00;100856.95;1476934;88;21295;-84
2023/08/13 03:26:55;;;;;;;7.67;3.70;;;;;;;14.14;100.00;100859.62;1472873;87;21600;-83
2023/08/13 03:29:22;;;;;;;5.33;3.90;;;;;;;14.14;100.00;100856.95;1477109;88;21516;-83
2023/08/13 03:31:48;;;;;;;6.27;4.20;;;;;;;14.15;100.00;100860.77;1470262;87;22300;-83
2023/08/13 03:34:14;;;;;;;6.93;4.37;;;;;;;14.15;100.00;100859.94;1476319;87;21509;-84
2023/08/13 03:36:40;;;;;;;7.53;4.43;;;;;;;14.13;100.00;100863.28;1473010;87;21427;-84
2023/08/13 03:39:06;;;;;;;6.87;4.23;;;;;;;14.09;100.00;100860.59;1467975;87;21508;-82
2023/08/13 03:41:33;;;;;;;6.57;4.10;;;;;;;14.08;100.00;100864.25;1471490;88;21353;-82
2023/08/13 03:43:59;;;;;;;8.40;4.00;;;;;;;14.06;100.00;100859.08;1476490;88;21427;-83
2023/08/13 03:46:25;;;;;;;9.83;3.63;;;;;;;14.07;100.00;100865.22;1472239;87;21941;-83
2023/08/13 03:48:51;;;;;;;7.27;4.00;;;;;;;14.08;100.00;100862.92;1464251;88;21472;-83
2023/08/13 03:51:18;;;;;;;15.17;4.87;;;;;;;14.08;100.00;100862.92;1472854;88;22314;-83
2023/08/13 03:53:44;;;;;;;5.33;3.97;;;;;;;14.07;100.00;100854.11;1476928;87;21434;-81
2023/08/13 03:56:10;;;;;;;4.70;3.67;;;;;;;14.08;100.00;100857.60;1487121;88;21515;-81
2023/08/13 03:58:38;;;;;;;5.87;4.03;;;;;;;14.10;100.00;100857.78;1480013;87;22269;-81
2023/08/13 04:01:06;;;;;;;3.93;3.53;;;;;;;14.12;100.00;100858.94;1466133;88;21294;-81
2023/08/13 04:03:33;;;;;;;7.80;4.60;;;;;;;14.13;100.00;100857.96;1473058;87;21534;-81
2023/08/13 04:05:59;;;;;;;6.23;4.30;;;;;;;14.11;100.00;100851.45;1475986;87;21390;-81
2023/08/13 04:08:25;;;;;;;8.33;3.97;;;;;;;14.13;100.00;100854.80;1465822;88;22522;-81
2023/08/13 04:10:53;;;;;;;3.93;3.17;;;;;;;14.15;100.00;100860.77;1467608;88;21302;-81
2023/08/13 04:13:19;;;;;;;5.70;3.60;;;;;;;14.19;100.00;100863.97;1467038;87;22336;-85
2023/08/13 04:15:46;;;;;;;7.33;3.90;;;;;;;14.23;100.00;100863.97;1478659;87;21331;-85
2023/08/13 04:18:12;;;;;;;5.17;3.50;;;;;;;14.28;100.00;100873.65;1475450;88;21390;-84
2023/08/13 04:20:41;;;;;;;21.47;10.87;;;;;;;14.34;100.00;100874.33;1476661;87;22491;-85
2023/08/13 04:23:08;;;;;;;6.27;4.67;;;;;;;14.39;100.00;100869.36;1478118;87;21434;-83
2023/08/13 04:25:34;;;;;;;7.60;4.10;;;;;;;14.44;100.00;100876.38;1479594;87;22224;-80
2023/08/13 04:28:00;;;;;;;7.80;3.77;;;;;;;14.44;100.00;100881.70;1476433;87;21295;-82
2023/08/13 04:30:26;;;;;;;11.90;4.00;;;;;;;14.46;100.00;100877.53;1479209;87;21531;-82
2023/08/13 04:32:54;;;;;;;8.23;3.90;;;;;;;14.53;100.00;100876.41;1487548;87;21426;-82
2023/08/13 04:35:22;;;;;;;7.20;3.50;;;;;;;14.62;100.00;100878.12;1474208;87;21515;-82
2023/08/13 04:37:50;;;;;;;7.47;3.90;;;;;;;14.72;100.00;100877.45;1468925;88;21464;-84
2023/08/13 04:40:17;;;;;;;5.83;3.80;;;;;;;14.83;100.00;100875.81;1477022;87;21456;-84
2023/08/13 04:42:43;;;;;;;10.80;4.10;;;;;;;14.96;100.00;100871.82;1481193;87;21361;-84
2023/08/13 04:45:12;;;;;;;6.10;4.27;;;;;;;15.07;100.00;100878.16;1474716;87;22388;-84
2023/08/13 04:47:38;;;;;;;6.20;3.53;;;;;;;15.17;100.00;100881.52;1477350;87;21419;-86
2023/08/13 04:50:07;;;;;;;8.10;4.33;;;;;;;15.28;100.00;100879.84;1471042;87;21673;-85
2023/08/13 04:52:33;;;;;;;8.10;4.40;;;;;;;15.40;100.00;100875.00;1465609;87;21459;-86
2023/08/13 04:55:00;;;;;;;7.30;4.73;;;;;;;15.50;100.00;100880.15;1467070;88;21375;-83
2023/08/13 04:57:26;;;;;;;4.27;3.87;;;;;;;15.62;100.00;100880.63;1469216;87;22425;-80
2023/08/13 04:59:52;;;;;;;6.10;3.03;;;;;;;15.72;100.00;100887.48;1463778;88;21331;-81
2023/08/13 05:02:19;;;;;;;5.90;3.50;;;;;;;15.86;100.00;100876.63;1468697;87;21316;-81
2023/08/13 05:04:45;;;;;;;4.20;3.40;;;;;;;16.00;100.00;100872.41;1479417;87;21538;-80
2023/08/13 05:07:11;;;;;;;5.43;3.87;;;;;;;16.16;100.00;100879.00;1470449;88;22299;-81
2023/08/13 05:09:38;;;;;;;6.70;3.70;;;;;;;16.29;100.00;100880.31;1463110;88;21522;-80
2023/08/13 05:12:04;;;;;;;6.07;3.73;;;;;;;16.40;100.00;100881.23;1473477;87;21405;-80
2023/08/13 05:14:31;;;;;;;4.33;3.80;;;;;;;16.50;100.00;100879.19;1482488;87;22306;-82
2023/08/13 05:16:57;;;;;;;10.63;4.17;;;;;;;16.63;100.00;100883.47;1467386;88;22580;-81
2023/08/13 05:19:23;;;;;;;7.93;4.33;;;;;;;16.76;100.00;100883.39;1478977;87;21405;-81
2023/08/13 05:21:52;;;;;;;7.83;4.47;;;;;;;16.86;100.00;100881.33;1471900;88;21404;-81
2023/08/13 05:24:18;;;;;;;7.83;4.63;;;;;;;16.99;100.00;100885.59;1467300;88;21404;-82
2023/08/13 05:26:44;;;;;;;6.73;4.17;;;;;;;17.11;100.00;100884.16;1469840;88;21353;-81
2023/08/13 05:29:11;;;;;;;5.63;4.23;;;;;;;17.24;100.00;100886.75;1470825;87;22463;-80
2023/08/13 05:31:37;;;;;;;6.00;5.17;;;;;;;17.37;100.00;100888.29;1480880;88;21383;-81
2023/08/13 05:34:03;;;;;;;11.30;5.20;;;;;;;17.48;100.00;100887.86;1473430;88;21316;-80
2023/08/13 05:36:29;;;;;;;8.90;4.90;;;;;;;17.59;100.00;100880.73;1459417;88;21456;-80
2023/08/13 05:38:55;;;;;;;10.27;4.70;;;;;;;17.74;100.00;100890.63;1473725;87;22321;-81
2023/08/13 05:41:22;;;;;;;8.60;4.43;;;;;;;17.84;100.00;100879.18;1472595;88;21346;-81
2023/08/13 05:43:48;;;;;;;6.80;4.60;;;;;;;17.97;100.00;100875.33;1473488;88;22233;-81
2023/08/13 05:46:14;;;;;;;7.73;5.70;;;;;;;18.10;100.00;100880.56;1468902;88;21427;-80
2023/08/13 05:48:41;;;;;;;7.93;5.00;;;;;;;18.23;100.00;100875.36;1473555;87;21538;-81
2023/08/13 05:51:07;;;;;;;14.33;5.37;;;;;;;18.36;100.00;100883.58;1474874;87;21317;-83
2023/08/13 05:53:33;;;;;;;5.78;5.03;;;;;;;18.51;100.00;100888.08;1473045;88;22529;-82
2023/08/13 05:56:00;;;;;;;6.22;5.10;;;;;;;18.67;100.00;100881.13;1475726;87;21397;-81
2023/08/13 05:58:26;;;;;;;9.10;4.97;;;;;;;18.81;100.00;100887.50;1474750;87;21368;-82
2023/08/13 06:00:53;;;;;;;10.80;4.92;;;;;;;18.96;100.00;100888.78;1464919;88;21352;-80
2023/08/13 06:03:19;;;;;;;6.22;4.58;;;;;;;19.07;100.00;100890.44;1481885;87;21495;-81
2023/08/13 06:05:47;;;;;;;8.43;4.83;;;;;;;19.23;100.00;100888.53;1476739;87;21390;-82
2023/08/13 06:08:13;;;;;;;21.75;6.37;;;;;;;19.37;100.00;100892.47;1462904;87;22255;-82
2023/08/13 06:10:40;;;;;;;9.43;4.85;;;;;;;19.53;100.00;100894.55;1471613;87;21571;-83
2023/08/13 06:13:06;;;;;;;9.35;5.47;;;;;;;19.67;100.00;100900.36;1468051;88;21404;-82
2023/08/13 06:15:32;;;;;;;12.28;4.65;;;;;;;19.79;100.00;100900.64;1476388;87;21316;-81
2023/08/13 06:18:00;;;;;;;14.03;5.28;;;;;;;19.90;100.00;100896.59;1477022;88;21413;-81
2023/08/13 06:20:26;;;;;;;8.83;5.10;;;;;;;20.02;100.00;100908.42;1478093;87;21412;-82
2023/08/13 06:22:52;;;;;;;15.68;6.30;;;;;;;20.11;100.00;100903.72;1479661;87;21360;-82
2023/08/13 06:25:18;;;;;;;12.05;5.95;;;;;;;20.21;100.00;100895.62;1476242;87;21368;-81
2023/08/13 06:27:44;;;;;;;16.00;5.33;;;;;;;20.34;100.00;100895.36;1474292;87;21538;-82
2023/08/13 06:30:31;;;;;;;8.90;5.33;;;;;;;20.47;100.00;100898.93;1469397;87;22317;-81
2023/08/13 06:32:44;;;;;;;10.08;4.67;;;;;;;20.61;100.00;100891.78;1461891;88;21427;-80
2023/08/13 06:35:10;;;;;;;8.98;4.37;;;;;;;20.76;100.00;100894.30;1474374;88;21492;-81
2023/08/13 06:37:37;;;;;;;10.28;4.15;;;;;;;20.93;100.00;100898.78;1464591;87;22334;-82
2023/08/13 06:40:04;;;;;;;7.70;4.47;;;;;;;21.07;100.00;100905.02;1479892;88;21354;-88
2023/08/13 06:42:30;;;;;;;10.43;4.87;;;;;;;21.17;100.00;100910.81;1464757;87;21353;-85
2023/08/13 06:44:57;;;;;;;10.38;3.62;;;;;;;21.27;100.00;100902.35;1474285;88;21382;-88
2023/08/13 06:47:23;;;;;;;9.68;4.37;;;;;;;21.42;100.00;100905.69;1472975;87;21338;-84
2023/08/13 06:49:49;;;;;;;13.03;4.25;;;;;;;21.53;100.00;100902.38;1470321;87;21676;-85
2023/08/13 06:52:16;;;;;;;7.12;3.85;;;;;;;21.75;100.00;100906.17;1464394;88;21602;-86
2023/08/13 06:54:42;;;;;;;14.23;4.67;;;;;;;21.89;100.00;100913.19;1469488;87;21574;-86
2023/08/13 06:57:09;;;;;;;8.05;4.47;;;;;;;22.01;100.00;100910.67;1472273;87;21317;-86
2023/08/13 06:59:35;;;;;;;10.55;4.67;;;;;;;22.15;100.00;100908.78;1468664;87;21504;-85
2023/08/13 07:02:01;;;;;;;7.42;4.22;;;;;;;22.25;100.00;100909.20;1472539;87;21374;-84
2023/08/13 07:04:30;;;;;;;9.70;3.37;;;;;;;22.36;100.00;100912.59;1462659;88;21346;-86
2023/08/13 07:06:57;;;;;;;5.90;3.37;;;;;;;22.51;100.00;100907.73;1456964;88;21876;-86
2023/08/13 07:09:25;;;;;;;4.15;3.20;;;;;;;22.66;100.00;100910.67;1466253;87;21729;-88
2023/08/13 07:11:51;;;;;;;4.90;4.03;;;;;;;22.80;100.00;100910.91;1472147;88;21471;-86
2023/08/13 07:14:18;;;;;;;6.35;3.55;;;;;;;22.93;99.37;100919.44;1473273;87;21353;-87
2023/08/13 07:16:45;;;;;;;6.00;3.25;;;;;;;23.03;97.55;100919.01;1473876;87;21641;-86
2023/08/13 07:19:11;;;;;;;4.40;2.80;;;;;;;23.14;97.75;100923.71;1476082;88;21315;-87
2023/08/13 07:21:37;;;;;;;4.20;2.08;;;;;;;23.26;96.67;100925.18;1470229;88;21589;-87
2023/08/13 07:24:04;;;;;;;6.15;2.60;;;;;;;23.35;95.38;100927.38;1474667;87;21353;-86
2023/08/13 07:26:31;;;;;;;7.17;2.77;;;;;;;23.47;93.77;100928.02;1464831;88;21398;-83
2023/08/13 07:28:58;;;;;;;7.97;3.22;;;;;;;23.54;91.50;100932.86;1478278;87;22513;-86
2023/08/13 07:31:25;;;;;;;4.05;2.60;;;;;;;23.57;90.78;100927.02;1474680;88;21353;-87
2023/08/13 07:33:53;;;;;;;5.70;2.83;;;;;;;23.61;89.97;100926.86;1474366;87;21359;-86
2023/08/13 07:36:20;;;;;;;16.32;2.92;;;;;;;23.71;90.33;100920.47;1475807;87;22347;-84
2023/08/13 07:38:46;;;;;;;8.88;2.47;;;;;;;23.78;87.96;100921.75;1470072;87;21399;-84
2023/08/13 07:41:13;;;;;;;4.28;2.95;;;;;;;23.87;87.29;100925.28;1470207;87;21509;-85
2023/08/13 07:43:39;;;;;;;5.30;2.87;;;;;;;23.94;86.05;100931.14;1464455;88;21434;-85
2023/08/13 07:46:06;;;;;;;7.55;2.75;;;;;;;24.01;85.30;100922.45;1465169;88;22416;-84
2023/08/13 07:48:32;;;;;;;4.75;2.25;;;;;;;24.11;84.51;100928.17;1468847;88;21927;-86
2023/08/13 07:50:58;;;;;;;3.15;2.22;;;;;;;24.16;83.61;100930.19;1474615;88;21390;-88
2023/08/13 07:53:25;;;;;;;4.25;2.12;;;;;;;24.27;82.64;100926.20;1474735;87;22234;-87
2023/08/13 07:55:51;;;;;;;5.47;2.75;;;;;;;24.38;81.68;100921.92;1465500;88;21449;-84
2023/08/13 07:58:18;;;;;;;6.05;2.50;;;;;;;24.54;81.32;100924.05;1471465;88;22305;-87
2023/08/13 08:00:44;;;;;;;6.37;2.35;;;;;;;24.64;79.44;100918.61;1476217;87;21375;-88
2023/08/13 08:03:11;;;;;;;6.42;2.52;;;;;;;24.73;79.59;100924.81;1474000;87;22360;-86
2023/08/13 08:05:37;;;;;;;2.47;1.95;;;;;;;24.81;69.60;100922.86;1476577;88;21494;-88
2023/08/13 08:08:04;;;;;;;10.32;2.55;;;;;;;24.86;70.11;100922.97;1474801;87;21324;-85
2023/08/13 08:10:31;;;;;;;5.33;2.37;;;;;;;24.94;70.41;100922.65;1478183;88;21567;-87
2023/08/13 08:12:58;;;;;;;3.62;2.25;;;;;;;25.05;70.42;100912.38;1469014;88;21572;-86
2023/08/13 08:15:25;;;;;;;7.87;2.40;;;;;;;25.10;63.32;100915.23;1477524;87;21375;-86
2023/08/13 08:17:51;;;;;;;6.85;3.00;;;;;;;25.09;54.41;100919.00;1465739;87;22393;-86
2023/08/13 08:20:17;;;;;;;6.00;2.50;;;;;;;25.21;54.91;100914.46;1468211;88;21389;-89
2023/08/13 08:22:44;;;;;;;6.33;2.02;;;;;;;25.32;55.23;100916.05;1479758;88;22249;-88
2023/08/13 08:25:10;;;;;;;3.52;1.90;;;;;;;25.43;52.12;100917.95;1471295;88;21361;-88
2023/08/13 08:27:37;;;;;;;3.47;2.00;;;;;;;25.53;51.67;100920.10;1471142;87;21367;-87
2023/08/13 08:30:05;;;;;;;4.78;2.10;;;;;;;25.60;50.24;100914.02;1475728;87;21412;-87
2023/08/13 08:32:32;;;;;;;6.10;2.20;;;;;;;25.56;46.48;100916.38;1474078;88;21280;-88
2023/08/13 08:34:58;;;;;;;5.55;2.67;;;;;;;25.68;47.22;100915.03;1473277;88;21587;-88
2023/08/13 08:37:24;;;;;;;4.55;2.12;;;;;;;25.79;46.47;100910.67;1478602;87;22285;-89
2023/08/13 08:39:51;;;;;;;5.25;2.15;;;;;;;25.87;45.64;100910.34;1475241;87;21441;-86
2023/08/13 08:42:19;;;;;;;5.00;2.15;;;;;;;25.99;44.82;100911.16;1473134;87;21427;-90
2023/08/13 08:44:45;;;;;;;7.25;2.12;;;;;;;26.08;43.95;100897.51;1475640;87;21309;-86
2023/08/13 08:47:11;;;;;;;8.18;2.27;;;;;;;26.19;43.97;100906.69;1474255;87;22270;-88
2023/08/13 08:49:38;;;;;;;5.42;2.20;;;;;;;26.29;43.64;100904.71;1474253;88;21524;-86
2023/08/13 08:52:07;;;;;;;4.65;2.87;;;;;;;26.39;44.05;100904.93;1473554;87;21434;-86
2023/08/13 08:54:38;;;;;;;2.60;1.90;;;;;;;26.50;43.09;100900.03;1473695;87;22468;-85
2023/08/13 08:57:20;;;;;;;11.70;1.92;;;;;;;26.54;39.72;100905.79;1469422;87;21559;-86
2023/08/13 08:59:46;;;;;;;2.87;1.80;;;;;;;26.58;40.62;100899.34;1551882;88;21406;-86
2023/08/13 09:02:13;;;;;;;6.15;2.50;;;;;;;26.71;40.31;100894.98;1398259;87;21243;-85
2023/08/13 09:04:43;;;;;;;4.83;2.50;;;;;;;26.83;40.21;100894.38;1403756;87;21346;-85
2023/08/13 09:07:09;;;;;;;6.97;2.17;;;;;;;26.98;40.51;100894.64;1447995;88;21383;-87
2023/08/13 09:09:36;;;;;;;4.28;2.22;;;;;;;27.15;40.38;100893.33;1467458;88;21383;-86
2023/08/13 09:12:03;;;;;;;5.15;1.95;;;;;;;27.23;39.55;100893.47;1437055;88;21575;-87
2023/08/13 09:14:29;;;;;;;3.27;2.20;;;;;;;27.28;39.60;100893.56;1464577;88;21501;-85
2023/08/13 09:16:57;;;;;;;5.67;2.45;;;;;;;27.34;39.00;100892.56;1473991;87;21382;-83
2023/08/13 09:19:26;;;;;;;8.55;2.12;;;;;;;27.33;38.81;100898.23;1474983;87;22256;-86
2023/08/13 09:21:57;;;;;;;6.30;1.87;;;;;;;27.35;38.57;100896.09;1467775;88;21396;-87
2023/08/13 09:24:39;;;;;;;3.60;2.12;;;;;;;27.43;38.60;100896.50;1473000;87;21488;-84
2023/08/13 09:27:07;;;;;;;7.20;2.20;;;;;;;27.54;38.70;100893.41;1471219;87;21486;-85
2023/08/13 09:29:35;;;;;;;4.95;2.10;;;;;;;27.65;38.12;100898.48;1434539;88;21368;-86
2023/08/13 09:32:10;;;;;;;3.33;2.00;;;;;;;27.70;38.34;100898.52;1464975;88;21617;-86
2023/08/13 09:34:37;;;;;;;2.47;1.80;;;;;;;27.85;38.29;100897.44;1558864;88;21289;-87
2023/08/13 09:37:06;;;;;;;7.17;2.20;;;;;;;27.95;37.49;100898.09;1410828;87;21368;-85
2023/08/13 09:39:33;;;;;;;7.50;2.08;;;;;;;28.08;37.91;100895.52;1470526;88;22248;-85
2023/08/13 09:42:02;;;;;;;9.20;2.22;;;;;;;28.18;37.76;100895.66;1472131;87;22322;-86
2023/08/13 09:44:29;;;;;;;2.30;1.90;;;;;;;28.19;36.11;100906.83;1472929;87;22342;-87
2023/08/13 09:47:01;;;;;;;3.80;2.00;;;;;;;28.20;36.54;100904.95;1474329;87;21324;-87
2023/08/13 09:49:34;;;;;;;6.25;2.08;;;;;;;28.21;37.17;100897.06;1473964;88;22328;-86
2023/08/13 09:52:08;;;;;;;12.45;2.08;;;;;;;28.28;36.55;100900.40;1475057;87;21441;-85
2023/08/13 09:54:57;;;;;;;28.32;3.70;;;;;;;28.31;36.36;100895.30;1473761;87;21669;-85
2023/08/13 09:57:26;;;;;;;5.33;2.25;;;;;;;28.32;36.52;100896.93;1473735;87;21448;-85
2023/08/13 09:59:54;;;;;;;3.17;1.90;;;;;;;28.28;36.18;100902.61;1471398;88;21909;-87
2023/08/13 10:02:21;;;;;;;4.35;1.92;;;;;;;28.23;35.64;100906.62;1407872;87;21474;-85
2023/08/13 10:04:48;;;;;;;4.53;1.90;;;;;;;28.20;36.35;100901.69;1558875;87;21199;-86
2023/08/13 10:07:14;;;;;;;5.05;2.42;;;;;;;28.30;36.81;100901.80;1398017;87;21376;-87
2023/08/13 10:09:41;;;;;;;3.55;1.65;;;;;;;28.41;36.14;100911.45;1411288;88;21397;-87
2023/08/13 10:12:12;;;;;;;4.65;2.25;;;;;;;28.38;35.75;100903.80;1473822;87;22242;-85
2023/08/13 10:14:39;;;;;;;3.75;2.35;;;;;;;28.43;36.01;100901.17;1472185;87;21859;-86
2023/08/13 10:17:07;;;;;;;6.70;1.90;;;;;;;28.53;36.16;100903.99;1393303;88;21487;-85
2023/08/13 10:19:37;;;;;;;2.65;1.90;;;;;;;28.57;36.08;100907.87;1468770;87;21331;-86
2023/08/13 10:22:04;;;;;;;3.45;2.17;;;;;;;28.65;36.32;100901.13;1471817;87;21368;-86
2023/08/13 10:24:30;;;;;;;5.72;2.37;;;;;;;28.77;36.54;100896.33;1464886;88;21482;-87
2023/08/13 10:26:59;;;;;;;5.78;2.05;;;;;;;28.85;36.69;100893.70;1474285;88;21375;-87
2023/08/13 10:29:39;;;;;;;3.47;2.22;;;;;;;28.97;36.40;100892.98;1466470;88;21916;-87
2023/08/13 10:32:16;;;;;;;13.55;2.85;;;;;;;29.06;36.64;100898.30;1467149;88;22410;-87
2023/08/13 10:34:50;;;;;;;2.55;2.05;;;;;;;29.16;36.47;100894.27;1458050;87;22329;-86
2023/08/13 10:37:19;;;;;;;7.25;2.40;;;;;;;29.14;36.07;100889.62;1473783;87;21419;-88
2023/08/13 10:39:49;;;;;;;5.37;2.08;;;;;;;29.23;36.26;100888.08;1472454;87;22826;-87
2023/08/13 10:42:34;;;;;;;2.67;2.05;;;;;;;29.20;36.03;100888.60;1473482;87;21522;-85
2023/08/13 10:45:09;;;;;;;5.87;2.17;;;;;;;29.20;36.16;100877.70;1476079;87;21426;-87
2023/08/13 10:47:46;;;;;;;6.92;2.62;;;;;;;29.24;36.50;100874.72;1473862;88;21315;-87
2023/08/13 10:50:23;;;;;;;6.67;2.17;;;;;;;29.36;36.36;100875.08;1462264;87;21419;-87
2023/08/13 10:53:21;;;;;;;6.10;2.80;;;;;;;29.46;36.20;100876.49;1395123;88;21301;-87
2023/08/13 10:55:59;;;;;;;3.35;2.00;;;;;;;29.51;36.37;100873.81;1558678;87;21235;-85
2023/08/13 10:58:39;;;;;;;3.80;1.80;;;;;;;29.52;36.10;100872.74;1515918;87;21509;-85
2023/08/13 11:01:19;;;;;;;6.20;2.75;;;;;;;29.41;35.71;100870.48;1474391;88;21279;-84
2023/08/13 11:03:49;;;;;;;8.38;2.37;;;;;;;29.40;35.96;100868.82;1474636;88;21500;-84
2023/08/13 11:06:15;;;;;;;5.78;2.50;;;;;;;29.40;34.82;100866.64;1471150;88;22336;-86
2023/08/13 11:08:46;;;;;;;2.30;1.92;;;;;;;29.43;36.03;100863.39;1477301;88;21612;-86
2023/08/13 11:11:14;;;;;;;3.95;2.87;;;;;;;29.25;35.36;100861.91;1469502;87;21345;-87
2023/08/13 11:13:41;;;;;;;2.67;2.00;;;;;;;29.36;36.01;100860.08;1558668;87;22064;-86
2023/08/13 11:16:07;;;;;;;4.08;2.00;;;;;;;29.51;36.28;100867.54;1397308;87;21243;-87
2023/08/13 11:18:33;;;;;;;3.95;1.80;;;;;;;29.52;36.21;100863.20;1391881;89;21206;-86
2023/08/13 11:21:01;;;;;;;4.33;2.27;;;;;;;29.59;36.43;100858.31;1397089;87;21397;-86
2023/08/13 11:23:27;;;;;;;5.83;2.47;;;;;;;29.70;36.41;100857.05;1390138;89;21221;-86
2023/08/13 11:25:54;;;;;;;6.25;2.10;;;;;;;29.80;36.37;100853.81;1402794;87;21479;-88